createdAt,value
2018-12-24T00:00:32.284Z,16.90
2018-12-24T00:01:07.000Z,16.90
2018-12-24T00:01:45.548Z,16.80
2018-12-24T00:02:19.307Z,16.90
2018-12-24T00:02:57.828Z,16.90
2018-12-24T00:03:31.085Z,16.90
2018-12-24T00:04:05.694Z,16.90
2018-12-24T00:04:40.098Z,16.90
2018-12-24T00:05:17.647Z,16.90
2018-12-24T00:05:52.764Z,16.90
2018-12-24T00:06:26.304Z,16.90
2018-12-24T00:07:01.004Z,16.90
2018-12-24T00:07:42.089Z,16.90
2018-12-24T00:08:15.761Z,16.90
2018-12-24T00:08:49.638Z,16.90
2018-12-24T00:09:23.630Z,16.90
2018-12-24T00:09:57.432Z,16.90
2018-12-24T00:10:31.296Z,16.90
2018-12-24T00:11:06.637Z,16.90
2018-12-24T00:11:41.267Z,16.90
2018-12-24T00:12:19.033Z,16.90
2018-12-24T00:12:52.811Z,16.90
2018-12-24T00:13:32.441Z,16.90
2018-12-24T00:14:08.986Z,16.90
2018-12-24T00:14:53.504Z,16.80
2018-12-24T00:15:20.639Z,16.80
2018-12-24T00:15:57.127Z,16.80
2018-12-24T00:16:33.410Z,16.80
2018-12-24T00:17:10.215Z,16.80
2018-12-24T00:17:52.137Z,16.80
2018-12-24T00:18:28.040Z,16.80
2018-12-24T00:19:02.654Z,16.90
2018-12-24T00:19:36.452Z,16.90
2018-12-24T00:20:15.126Z,16.90
2018-12-24T00:20:47.850Z,16.90
2018-12-24T00:21:23.040Z,16.90
2018-12-24T00:21:58.493Z,16.90
2018-12-24T00:22:34.018Z,16.80
2018-12-24T00:23:08.701Z,16.80
2018-12-24T00:23:44.002Z,16.90
2018-12-24T00:24:26.775Z,16.90
2018-12-24T00:25:04.308Z,16.90
2018-12-24T00:25:39.976Z,16.90
2018-12-24T00:26:19.840Z,16.90
2018-12-24T00:27:03.773Z,16.90
2018-12-24T00:27:38.323Z,16.90
2018-12-24T00:28:16.756Z,16.90
2018-12-24T00:28:49.831Z,16.90
2018-12-24T00:29:24.819Z,16.90
2018-12-24T00:29:58.550Z,16.90
2018-12-24T00:30:37.068Z,16.90
2018-12-24T00:31:12.549Z,16.90
2018-12-24T00:31:50.497Z,16.90
2018-12-24T00:32:24.067Z,16.90
2018-12-24T00:32:58.897Z,16.90
2018-12-24T00:33:32.576Z,16.90
2018-12-24T00:34:10.875Z,16.90
2018-12-24T00:34:50.544Z,16.90
2018-12-24T00:35:22.307Z,16.90
2018-12-24T00:35:57.018Z,16.90
2018-12-24T00:36:35.615Z,16.90
2018-12-24T00:37:22.741Z,16.80
2018-12-24T00:38:00.178Z,16.90
2018-12-24T00:38:35.500Z,16.90
2018-12-24T00:39:16.690Z,16.90
2018-12-24T00:39:53.278Z,16.90
2018-12-24T00:40:27.098Z,16.90
2018-12-24T00:41:05.088Z,16.90
2018-12-24T00:41:41.841Z,16.90
2018-12-24T00:42:21.508Z,16.90
2018-12-24T00:42:55.521Z,16.90
2018-12-24T00:43:38.285Z,16.90
2018-12-24T00:44:16.835Z,16.90
2018-12-24T00:44:52.902Z,16.90
2018-12-24T00:45:28.144Z,16.90
2018-12-24T00:46:01.823Z,16.90
2018-12-24T00:46:41.543Z,17.00
2018-12-24T00:47:15.283Z,16.90
2018-12-24T00:47:49.311Z,16.90
2018-12-24T00:48:25.595Z,16.90
2018-12-24T00:49:09.723Z,16.90
2018-12-24T00:49:50.679Z,16.90
2018-12-24T00:50:26.336Z,16.90
2018-12-24T00:51:00.087Z,16.90
2018-12-24T00:51:36.179Z,16.90
2018-12-24T00:52:11.248Z,16.90
2018-12-24T00:52:44.887Z,16.90
2018-12-24T00:53:37.527Z,16.90
2018-12-24T00:54:10.436Z,16.90
2018-12-24T00:54:44.059Z,16.90
2018-12-24T00:55:20.120Z,16.90
2018-12-24T00:55:56.579Z,16.90
2018-12-24T00:56:30.147Z,17.00
2018-12-24T00:57:06.464Z,17.00
2018-12-24T00:57:44.584Z,16.90
2018-12-24T00:58:21.168Z,17.00
2018-12-24T00:58:55.188Z,17.00
2018-12-24T00:59:33.715Z,17.00
2018-12-24T01:00:12.357Z,17.00
2018-12-24T01:00:43.135Z,16.90
2018-12-24T01:01:20.394Z,16.90
2018-12-24T01:01:57.041Z,17.00
2018-12-24T01:02:33.465Z,16.90
2018-12-24T01:03:07.198Z,16.90
2018-12-24T01:03:44.108Z,16.90
2018-12-24T01:04:20.348Z,16.90
2018-12-24T01:04:56.647Z,16.90
2018-12-24T01:05:32.005Z,16.90
2018-12-24T01:06:06.117Z,16.90
2018-12-24T01:06:49.490Z,16.90
2018-12-24T01:07:23.941Z,16.90
2018-12-24T01:07:56.749Z,16.90
2018-12-24T01:08:34.813Z,16.90
2018-12-24T01:09:12.115Z,16.90
2018-12-24T01:09:44.916Z,16.90
2018-12-24T01:10:25.102Z,16.90
2018-12-24T01:10:58.812Z,16.90
2018-12-24T01:11:39.781Z,16.90
2018-12-24T01:12:24.526Z,16.90
2018-12-24T01:12:53.018Z,16.90
2018-12-24T01:13:29.342Z,16.90
2018-12-24T01:14:09.647Z,16.90
2018-12-24T01:14:41.482Z,16.90
2018-12-24T01:15:15.185Z,16.90
2018-12-24T01:15:52.264Z,17.00
2018-12-24T01:16:25.894Z,17.00
2018-12-24T01:17:04.862Z,16.90
2018-12-24T01:17:38.469Z,16.90
2018-12-24T01:18:14.672Z,16.90
2018-12-24T01:18:52.869Z,16.90
2018-12-24T01:19:27.088Z,16.90
2018-12-24T01:20:00.284Z,16.90
2018-12-24T01:20:33.931Z,16.90
2018-12-24T01:21:06.882Z,16.90
2018-12-24T01:21:39.843Z,16.90
2018-12-24T01:22:12.680Z,16.90
2018-12-24T01:22:46.217Z,16.90
2018-12-24T01:23:19.855Z,17.00
2018-12-24T01:23:53.935Z,17.00
2018-12-24T01:24:28.582Z,17.00
2018-12-24T01:25:02.199Z,17.00
2018-12-24T01:25:35.602Z,17.00
2018-12-24T01:26:09.491Z,17.00
2018-12-24T01:26:43.271Z,17.00
2018-12-24T01:27:16.721Z,17.00
2018-12-24T01:27:50.374Z,17.00
2018-12-24T01:28:23.839Z,17.00
2018-12-24T01:28:57.378Z,17.00
2018-12-24T01:29:30.749Z,17.00
2018-12-24T01:30:04.307Z,16.90
2018-12-24T01:30:37.948Z,16.90
2018-12-24T01:31:11.486Z,17.00
2018-12-24T01:31:45.275Z,17.00
2018-12-24T01:32:18.884Z,17.00
2018-12-24T01:32:52.575Z,16.90
2018-12-24T01:33:26.074Z,16.90
2018-12-24T01:34:00.635Z,16.90
2018-12-24T01:34:34.202Z,16.90
2018-12-24T01:35:07.791Z,16.90
2018-12-24T01:35:41.374Z,17.00
2018-12-24T01:36:14.743Z,17.00
2018-12-24T01:36:48.363Z,16.90
2018-12-24T01:37:22.075Z,17.00
2018-12-24T01:37:55.458Z,16.90
2018-12-24T01:38:28.992Z,16.90
2018-12-24T01:39:02.546Z,16.90
2018-12-24T01:39:36.238Z,16.90
2018-12-24T01:40:09.760Z,16.90
2018-12-24T01:40:43.207Z,16.90
2018-12-24T01:41:16.851Z,16.90
2018-12-24T01:41:50.305Z,16.90
2018-12-24T01:42:23.906Z,17.00
2018-12-24T01:42:57.283Z,16.90
2018-12-24T01:43:30.622Z,17.00
2018-12-24T01:44:07.214Z,17.00
2018-12-24T01:44:40.845Z,16.90
2018-12-24T01:45:14.408Z,16.90
2018-12-24T01:45:47.870Z,17.00
2018-12-24T01:46:21.454Z,17.00
2018-12-24T01:46:55.098Z,16.90
2018-12-24T01:47:28.594Z,16.90
2018-12-24T01:48:02.231Z,16.90
2018-12-24T01:48:35.868Z,16.90
2018-12-24T01:49:09.519Z,16.90
2018-12-24T01:49:43.146Z,16.90
2018-12-24T01:50:16.687Z,16.90
2018-12-24T01:50:50.206Z,17.00
2018-12-24T01:51:23.778Z,17.00
2018-12-24T01:51:57.168Z,17.00
2018-12-24T01:52:30.601Z,16.90
2018-12-24T01:53:04.134Z,16.90
2018-12-24T01:53:37.813Z,16.90
2018-12-24T01:54:11.444Z,16.90
2018-12-24T01:54:44.940Z,17.00
2018-12-24T01:55:18.532Z,16.90
2018-12-24T01:55:52.001Z,17.00
2018-12-24T01:56:25.540Z,16.90
2018-12-24T01:56:58.959Z,16.90
2018-12-24T01:57:32.650Z,16.90
2018-12-24T01:58:06.358Z,17.00
2018-12-24T01:58:40.025Z,16.90
2018-12-24T01:59:13.559Z,17.00
2018-12-24T01:59:47.129Z,17.00
2018-12-24T02:00:20.961Z,17.00
2018-12-24T02:00:54.587Z,17.00
2018-12-24T02:01:28.365Z,17.00
2018-12-24T02:02:01.966Z,17.00
2018-12-24T02:02:35.692Z,17.00
2018-12-24T02:03:09.346Z,16.90
2018-12-24T02:03:43.015Z,17.00
2018-12-24T02:04:16.664Z,16.90
2018-12-24T02:04:50.333Z,17.00
2018-12-24T02:05:23.943Z,16.90
2018-12-24T02:05:57.453Z,16.90
2018-12-24T02:06:30.746Z,17.00
2018-12-24T02:07:04.251Z,16.90
2018-12-24T02:07:37.710Z,16.90
2018-12-24T02:08:11.113Z,16.90
2018-12-24T02:08:44.540Z,16.90
2018-12-24T02:09:17.919Z,16.90
2018-12-24T02:09:51.388Z,16.90
2018-12-24T02:10:25.126Z,16.90
2018-12-24T02:10:58.694Z,16.90
2018-12-24T02:11:32.397Z,16.90
2018-12-24T02:12:05.999Z,16.90
2018-12-24T02:12:42.295Z,16.90
2018-12-24T02:13:15.099Z,17.00
2018-12-24T02:13:48.653Z,16.90
2018-12-24T02:14:22.475Z,16.90
2018-12-24T02:14:55.964Z,16.90
2018-12-24T02:15:29.647Z,17.00
2018-12-24T02:16:03.246Z,16.90
2018-12-24T02:16:36.593Z,17.00
2018-12-24T02:17:09.942Z,16.90
2018-12-24T02:17:43.383Z,17.00
2018-12-24T02:18:17.066Z,17.00
2018-12-24T02:18:50.393Z,17.00
2018-12-24T02:19:24.012Z,17.00
2018-12-24T02:19:57.250Z,17.00
2018-12-24T02:20:30.932Z,17.00
2018-12-24T02:21:04.551Z,17.00
2018-12-24T02:21:38.270Z,17.00
2018-12-24T02:22:12.883Z,17.00
2018-12-24T02:22:46.790Z,16.90
2018-12-24T02:23:20.414Z,16.90
2018-12-24T02:23:53.909Z,16.90
2018-12-24T02:24:27.794Z,16.90
2018-12-24T02:25:01.163Z,16.90
2018-12-24T02:25:34.977Z,16.90
2018-12-24T02:26:08.521Z,16.90
2018-12-24T02:26:42.367Z,16.90
2018-12-24T02:27:15.914Z,16.90
2018-12-24T02:27:49.635Z,17.00
2018-12-24T02:28:23.190Z,17.00
2018-12-24T02:28:56.318Z,16.90
2018-12-24T02:29:29.887Z,16.90
2018-12-24T02:30:03.309Z,16.90
2018-12-24T02:30:36.742Z,17.00
2018-12-24T02:31:10.136Z,16.90
2018-12-24T02:31:43.896Z,16.90
2018-12-24T02:32:17.513Z,17.00
2018-12-24T02:32:51.165Z,16.90
2018-12-24T02:33:24.834Z,16.90
2018-12-24T02:33:58.503Z,16.90
2018-12-24T02:34:31.717Z,16.90
2018-12-24T02:35:05.302Z,16.90
2018-12-24T02:35:38.722Z,16.90
2018-12-24T02:36:12.268Z,16.90
2018-12-24T02:36:45.738Z,16.90
2018-12-24T02:37:19.103Z,16.90
2018-12-24T02:37:52.787Z,16.90
2018-12-24T02:38:26.483Z,16.90
2018-12-24T02:39:00.152Z,16.90
2018-12-24T02:39:33.562Z,16.90
2018-12-24T02:40:07.304Z,16.90
2018-12-24T02:40:40.702Z,16.90
2018-12-24T02:41:14.065Z,16.90
2018-12-24T02:41:47.790Z,16.90
2018-12-24T02:42:21.579Z,16.90
2018-12-24T02:42:55.012Z,16.90
2018-12-24T02:43:28.602Z,16.90
2018-12-24T02:44:02.121Z,16.90
2018-12-24T02:44:35.637Z,16.90
2018-12-24T02:45:09.289Z,16.90
2018-12-24T02:45:43.117Z,16.90
2018-12-24T02:46:16.918Z,16.90
2018-12-24T02:46:50.568Z,16.90
2018-12-24T02:47:24.020Z,16.90
2018-12-24T02:47:57.520Z,16.90
2018-12-24T02:48:30.896Z,16.90
2018-12-24T02:49:04.505Z,16.90
2018-12-24T02:49:38.250Z,16.90
2018-12-24T02:50:11.805Z,16.90
2018-12-24T02:50:45.187Z,16.90
2018-12-24T02:51:18.844Z,16.90
2018-12-24T02:51:52.473Z,16.90
2018-12-24T02:52:25.928Z,16.90
2018-12-24T02:52:59.525Z,16.90
2018-12-24T02:53:33.102Z,16.90
2018-12-24T02:54:06.641Z,17.00
2018-12-24T02:54:40.382Z,17.00
2018-12-24T02:55:14.042Z,16.90
2018-12-24T02:55:47.792Z,17.00
2018-12-24T02:56:21.331Z,16.90
2018-12-24T02:56:54.711Z,16.90
2018-12-24T02:57:28.257Z,16.90
2018-12-24T02:58:01.718Z,16.90
2018-12-24T02:58:35.023Z,16.90
2018-12-24T02:59:08.653Z,16.90
2018-12-24T02:59:41.779Z,16.90
2018-12-24T03:00:14.767Z,16.90
2018-12-24T03:00:47.840Z,16.90
2018-12-24T03:01:20.936Z,16.90
2018-12-24T03:01:54.139Z,16.90
2018-12-24T03:02:27.048Z,16.90
2018-12-24T03:02:59.848Z,17.00
2018-12-24T03:03:35.406Z,16.90
2018-12-24T03:04:08.273Z,17.00
2018-12-24T03:04:41.105Z,16.90
2018-12-24T03:05:14.653Z,17.00
2018-12-24T03:05:47.765Z,17.00
2018-12-24T03:06:20.675Z,17.00
2018-12-24T03:06:53.847Z,17.00
2018-12-24T03:07:26.596Z,17.00
2018-12-24T03:07:59.773Z,17.00
2018-12-24T03:08:32.933Z,16.90
2018-12-24T03:09:06.103Z,16.90
2018-12-24T03:09:38.968Z,17.00
2018-12-24T03:10:11.945Z,17.00
2018-12-24T03:10:44.760Z,17.00
2018-12-24T03:11:17.636Z,17.00
2018-12-24T03:11:50.611Z,17.00
2018-12-24T03:12:23.455Z,17.00
2018-12-24T03:13:02.621Z,17.00
2018-12-24T03:13:30.919Z,17.00
2018-12-24T03:14:03.779Z,17.00
2018-12-24T03:14:36.937Z,17.00
2018-12-24T03:15:09.918Z,17.00
2018-12-24T03:15:45.384Z,17.00
2018-12-24T03:16:18.259Z,17.00
2018-12-24T03:16:51.255Z,17.00
2018-12-24T03:17:24.282Z,17.00
2018-12-24T03:17:57.254Z,17.00
2018-12-24T03:18:30.993Z,17.00
2018-12-24T03:19:04.575Z,17.00
2018-12-24T03:19:37.871Z,16.90
2018-12-24T03:20:11.319Z,17.00
2018-12-24T03:20:44.199Z,17.00
2018-12-24T03:21:17.074Z,17.00
2018-12-24T03:21:49.867Z,17.00
2018-12-24T03:22:22.701Z,17.00
2018-12-24T03:22:55.604Z,17.00
2018-12-24T03:23:28.690Z,17.00
2018-12-24T03:24:01.969Z,17.00
2018-12-24T03:24:35.011Z,17.00
2018-12-24T03:25:07.838Z,17.00
2018-12-24T03:25:40.689Z,16.90
2018-12-24T03:26:13.569Z,16.90
2018-12-24T03:26:46.475Z,16.90
2018-12-24T03:27:19.320Z,16.90
2018-12-24T03:27:52.304Z,16.90
2018-12-24T03:28:25.119Z,16.90
2018-12-24T03:28:57.918Z,16.90
2018-12-24T03:29:30.935Z,16.90
2018-12-24T03:30:03.800Z,16.90
2018-12-24T03:30:37.012Z,16.90
2018-12-24T03:31:09.852Z,16.90
2018-12-24T03:31:42.692Z,16.90
2018-12-24T03:32:15.555Z,16.90
2018-12-24T03:32:48.411Z,16.90
2018-12-24T03:33:21.233Z,16.90
2018-12-24T03:33:54.139Z,16.90
2018-12-24T03:34:26.931Z,16.90
2018-12-24T03:35:00.331Z,16.90
2018-12-24T03:35:33.691Z,16.90
2018-12-24T03:36:07.256Z,16.90
2018-12-24T03:36:40.113Z,16.90
2018-12-24T03:37:12.939Z,16.90
2018-12-24T03:37:45.849Z,16.90
2018-12-24T03:38:18.731Z,16.90
2018-12-24T03:38:51.826Z,16.90
2018-12-24T03:39:24.981Z,16.90
2018-12-24T03:39:58.622Z,16.90
2018-12-24T03:40:31.436Z,16.90
2018-12-24T03:41:04.261Z,16.90
2018-12-24T03:41:37.046Z,16.90
2018-12-24T03:42:09.957Z,16.90
2018-12-24T03:42:42.814Z,16.90
2018-12-24T03:43:16.084Z,17.00
2018-12-24T03:43:49.301Z,17.00
2018-12-24T03:44:22.831Z,17.00
2018-12-24T03:44:56.405Z,16.90
2018-12-24T03:45:29.818Z,16.90
2018-12-24T03:46:03.441Z,16.90
2018-12-24T03:46:37.031Z,16.80
2018-12-24T03:47:10.673Z,16.80
2018-12-24T03:47:44.218Z,16.70
2018-12-24T03:48:17.397Z,16.70
2018-12-24T03:48:50.964Z,16.60
2018-12-24T03:49:24.701Z,16.60
2018-12-24T03:49:57.458Z,16.60
2018-12-24T03:50:31.079Z,16.60
2018-12-24T03:51:04.023Z,16.50
2018-12-24T03:51:37.505Z,16.50
2018-12-24T03:52:10.960Z,16.40
2018-12-24T03:52:43.798Z,16.50
2018-12-24T03:53:17.232Z,16.50
2018-12-24T03:53:50.829Z,16.40
2018-12-24T03:54:24.341Z,16.40
2018-12-24T03:54:58.255Z,16.40
2018-12-24T03:55:34.312Z,16.30
2018-12-24T03:56:07.864Z,16.30
2018-12-24T03:56:41.296Z,16.30
2018-12-24T03:57:14.873Z,16.30
2018-12-24T03:57:48.453Z,16.30
2018-12-24T03:58:22.060Z,16.30
2018-12-24T03:58:55.593Z,16.30
2018-12-24T03:59:29.001Z,16.30
2018-12-24T04:00:02.491Z,16.40
2018-12-24T04:00:36.269Z,16.30
2018-12-24T04:01:09.947Z,16.30
2018-12-24T04:01:43.485Z,16.40
2018-12-24T04:02:17.005Z,16.30
2018-12-24T04:02:50.692Z,16.30
2018-12-24T04:03:24.189Z,16.30
2018-12-24T04:03:57.550Z,16.30
2018-12-24T04:04:31.147Z,16.30
2018-12-24T04:05:04.708Z,16.30
2018-12-24T04:05:38.247Z,16.30
2018-12-24T04:06:12.230Z,16.30
2018-12-24T04:06:45.842Z,16.30
2018-12-24T04:07:19.474Z,16.30
2018-12-24T04:07:52.976Z,16.30
2018-12-24T04:08:26.685Z,16.30
2018-12-24T04:09:00.273Z,16.30
2018-12-24T04:09:34.014Z,16.30
2018-12-24T04:10:07.550Z,16.30
2018-12-24T04:10:40.864Z,16.30
2018-12-24T04:11:14.509Z,16.30
2018-12-24T04:11:48.038Z,16.30
2018-12-24T04:12:21.492Z,16.30
2018-12-24T04:12:55.011Z,16.30
2018-12-24T04:13:28.809Z,16.30
2018-12-24T04:14:02.407Z,16.30
2018-12-24T04:14:35.957Z,16.20
2018-12-24T04:15:09.463Z,16.20
2018-12-24T04:15:43.166Z,16.20
2018-12-24T04:16:16.714Z,16.20
2018-12-24T04:16:50.193Z,16.20
2018-12-24T04:17:23.692Z,16.20
2018-12-24T04:17:57.583Z,16.20
2018-12-24T04:18:31.753Z,16.20
2018-12-24T04:19:05.361Z,16.20
2018-12-24T04:19:39.154Z,16.20
2018-12-24T04:20:12.840Z,16.20
2018-12-24T04:20:46.391Z,16.20
2018-12-24T04:21:20.047Z,16.20
2018-12-24T04:21:53.579Z,16.20
2018-12-24T04:22:27.281Z,16.20
2018-12-24T04:23:00.870Z,16.20
2018-12-24T04:23:35.355Z,16.30
2018-12-24T04:24:09.054Z,16.30
2018-12-24T04:24:42.802Z,16.20
2018-12-24T04:25:16.482Z,16.20
2018-12-24T04:25:50.232Z,16.20
2018-12-24T04:26:23.900Z,16.20
2018-12-24T04:26:57.407Z,16.20
2018-12-24T04:27:30.847Z,16.20
2018-12-24T04:28:04.645Z,16.20
2018-12-24T04:28:38.231Z,16.20
2018-12-24T04:29:11.706Z,16.20
2018-12-24T04:29:45.424Z,16.20
2018-12-24T04:30:19.032Z,16.20
2018-12-24T04:30:52.560Z,16.20
2018-12-24T04:31:26.203Z,16.20
2018-12-24T04:31:59.997Z,16.20
2018-12-24T04:32:33.761Z,16.20
2018-12-24T04:33:07.141Z,16.20
2018-12-24T04:33:40.852Z,16.20
2018-12-24T04:34:14.456Z,16.20
2018-12-24T04:34:48.102Z,16.20
2018-12-24T04:35:21.839Z,16.20
2018-12-24T04:35:55.546Z,16.20
2018-12-24T04:36:29.085Z,16.20
2018-12-24T04:37:02.627Z,16.30
2018-12-24T04:37:36.249Z,16.30
2018-12-24T04:38:09.734Z,16.30
2018-12-24T04:38:43.695Z,16.20
2018-12-24T04:39:17.344Z,16.30
2018-12-24T04:39:50.879Z,16.20
2018-12-24T04:40:24.456Z,16.20
2018-12-24T04:40:58.222Z,16.20
2018-12-24T04:41:31.846Z,16.30
2018-12-24T04:42:05.313Z,16.30
2018-12-24T04:42:38.812Z,16.30
2018-12-24T04:43:12.497Z,16.30
2018-12-24T04:43:46.046Z,16.30
2018-12-24T04:44:19.674Z,16.30
2018-12-24T04:44:53.303Z,16.30
2018-12-24T04:45:26.982Z,16.30
2018-12-24T04:46:00.519Z,16.30
2018-12-24T04:46:34.258Z,16.20
2018-12-24T04:47:07.458Z,16.30
2018-12-24T04:47:40.812Z,16.30
2018-12-24T04:48:14.452Z,16.20
2018-12-24T04:48:48.006Z,16.20
2018-12-24T04:49:22.051Z,16.30
2018-12-24T04:49:55.698Z,16.30
2018-12-24T04:50:29.247Z,16.20
2018-12-24T04:51:02.556Z,16.30
2018-12-24T04:51:35.881Z,16.30
2018-12-24T04:52:09.725Z,16.30
2018-12-24T04:52:43.381Z,16.30
2018-12-24T04:53:17.015Z,16.30
2018-12-24T04:53:50.732Z,16.20
2018-12-24T04:54:24.352Z,16.20
2018-12-24T04:54:57.781Z,16.30
2018-12-24T04:55:31.196Z,16.20
2018-12-24T04:56:04.833Z,16.20
2018-12-24T04:56:38.406Z,16.30
2018-12-24T04:57:11.926Z,16.20
2018-12-24T04:57:45.514Z,16.30
2018-12-24T04:58:19.075Z,16.20
2018-12-24T04:58:52.782Z,16.20
2018-12-24T04:59:26.363Z,16.20
2018-12-24T05:00:00.036Z,16.20
2018-12-24T05:00:33.351Z,16.20
2018-12-24T05:01:06.958Z,16.20
2018-12-24T05:01:40.699Z,16.20
2018-12-24T05:02:14.294Z,16.20
2018-12-24T05:02:47.922Z,16.20
2018-12-24T05:03:21.611Z,16.20
2018-12-24T05:03:55.262Z,16.20
2018-12-24T05:04:29.029Z,16.20
2018-12-24T05:05:02.438Z,16.20
2018-12-24T05:05:36.145Z,16.20
2018-12-24T05:06:09.675Z,16.20
2018-12-24T05:06:43.171Z,16.20
2018-12-24T05:07:16.823Z,16.10
2018-12-24T05:07:50.281Z,16.10
2018-12-24T05:08:23.872Z,16.10
2018-12-24T05:08:57.791Z,16.10
2018-12-24T05:09:31.374Z,16.10
2018-12-24T05:10:04.521Z,16.10
2018-12-24T05:10:38.304Z,16.10
2018-12-24T05:11:12.069Z,16.10
2018-12-24T05:11:45.774Z,16.10
2018-12-24T05:12:19.243Z,16.10
2018-12-24T05:12:52.872Z,16.10
2018-12-24T05:13:26.423Z,16.10
2018-12-24T05:13:59.977Z,16.10
2018-12-24T05:14:33.897Z,16.10
2018-12-24T05:15:07.768Z,16.10
2018-12-24T05:15:41.347Z,16.10
2018-12-24T05:16:14.852Z,16.10
2018-12-24T05:16:48.577Z,16.10
2018-12-24T05:17:22.136Z,16.10
2018-12-24T05:17:55.746Z,16.10
2018-12-24T05:18:29.474Z,16.10
2018-12-24T05:19:03.186Z,16.10
2018-12-24T05:19:36.722Z,16.10
2018-12-24T05:20:10.195Z,16.10
2018-12-24T05:20:43.756Z,16.10
2018-12-24T05:21:17.403Z,16.10
2018-12-24T05:21:50.812Z,16.10
2018-12-24T05:22:24.428Z,16.10
2018-12-24T05:22:57.924Z,16.10
2018-12-24T05:23:31.466Z,16.20
2018-12-24T05:24:05.139Z,16.20
2018-12-24T05:24:38.845Z,16.10
2018-12-24T05:25:12.366Z,16.10
2018-12-24T05:25:45.687Z,16.10
2018-12-24T05:26:19.062Z,16.10
2018-12-24T05:26:54.748Z,16.20
2018-12-24T05:27:27.830Z,16.10
2018-12-24T05:28:01.430Z,16.10
2018-12-24T05:28:34.960Z,16.10
2018-12-24T05:29:08.350Z,16.10
2018-12-24T05:29:41.874Z,16.10
2018-12-24T05:30:15.663Z,16.10
2018-12-24T05:30:49.057Z,16.00
2018-12-24T05:31:22.603Z,16.10
2018-12-24T05:31:56.097Z,16.00
2018-12-24T05:32:29.465Z,16.00
2018-12-24T05:33:02.897Z,16.00
2018-12-24T05:33:36.739Z,16.00
2018-12-24T05:34:10.317Z,16.10
2018-12-24T05:34:43.919Z,16.00
2018-12-24T05:35:17.601Z,16.00
2018-12-24T05:35:51.222Z,16.00
2018-12-24T05:36:24.717Z,16.00
2018-12-24T05:36:58.290Z,16.00
2018-12-24T05:37:32.141Z,16.00
2018-12-24T05:38:05.506Z,16.00
2018-12-24T05:38:39.013Z,16.00
2018-12-24T05:39:18.696Z,16.00
2018-12-24T05:39:53.494Z,16.00
2018-12-24T05:40:27.081Z,16.00
2018-12-24T05:41:00.928Z,15.90
2018-12-24T05:41:38.284Z,16.00
2018-12-24T05:42:11.901Z,16.00
2018-12-24T05:42:45.788Z,16.00
2018-12-24T05:43:19.189Z,16.00
2018-12-24T05:43:52.682Z,15.90
2018-12-24T05:44:26.033Z,15.90
2018-12-24T05:44:59.732Z,15.90
2018-12-24T05:45:33.561Z,15.90
2018-12-24T05:46:07.034Z,15.90
2018-12-24T05:46:40.601Z,15.90
2018-12-24T05:47:14.196Z,15.90
2018-12-24T05:47:47.658Z,15.90
2018-12-24T05:48:20.922Z,15.90
2018-12-24T05:48:54.684Z,15.90
2018-12-24T05:49:28.339Z,15.90
2018-12-24T05:50:02.055Z,15.90
2018-12-24T05:50:35.745Z,15.90
2018-12-24T05:51:09.569Z,15.90
2018-12-24T05:51:43.018Z,15.90
2018-12-24T05:52:16.796Z,15.90
2018-12-24T05:52:50.495Z,15.90
2018-12-24T05:53:24.160Z,15.90
2018-12-24T05:53:57.787Z,15.90
2018-12-24T05:54:31.298Z,15.90
2018-12-24T05:55:04.967Z,15.90
2018-12-24T05:55:38.408Z,15.90
2018-12-24T05:56:12.023Z,15.90
2018-12-24T05:56:45.978Z,15.80
2018-12-24T05:57:19.563Z,15.80
2018-12-24T05:57:53.059Z,15.90
2018-12-24T05:58:26.757Z,15.90
2018-12-24T05:59:00.560Z,15.90
2018-12-24T05:59:34.210Z,15.90
2018-12-24T06:00:07.619Z,15.90
2018-12-24T06:00:41.173Z,15.90
2018-12-24T06:01:14.838Z,15.90
2018-12-24T06:01:48.279Z,15.90
2018-12-24T06:02:21.877Z,15.90
2018-12-24T06:02:55.479Z,15.90
2018-12-24T06:03:29.122Z,15.80
2018-12-24T06:04:02.457Z,15.80
2018-12-24T06:04:35.919Z,15.80
2018-12-24T06:05:09.198Z,15.80
2018-12-24T06:05:42.791Z,15.80
2018-12-24T06:06:16.396Z,15.80
2018-12-24T06:06:49.768Z,15.80
2018-12-24T06:07:23.292Z,15.90
2018-12-24T06:07:57.112Z,15.90
2018-12-24T06:08:30.488Z,15.90
2018-12-24T06:09:03.730Z,15.90
2018-12-24T06:09:37.317Z,15.90
2018-12-24T06:10:10.909Z,15.90
2018-12-24T06:10:44.771Z,15.90
2018-12-24T06:11:18.609Z,15.90
2018-12-24T06:11:52.358Z,15.90
2018-12-24T06:12:26.199Z,15.80
2018-12-24T06:13:00.008Z,15.80
2018-12-24T06:13:33.614Z,15.80
2018-12-24T06:14:07.927Z,15.80
2018-12-24T06:14:41.264Z,15.80
2018-12-24T06:15:14.778Z,15.70
2018-12-24T06:15:48.665Z,15.80
2018-12-24T06:16:22.260Z,15.70
2018-12-24T06:16:55.773Z,15.70
2018-12-24T06:17:30.773Z,15.70
2018-12-24T06:18:04.497Z,15.70
2018-12-24T06:18:38.147Z,15.70
2018-12-24T06:19:11.642Z,15.70
2018-12-24T06:19:45.141Z,15.70
2018-12-24T06:20:18.911Z,15.70
2018-12-24T06:20:52.563Z,15.70
2018-12-24T06:21:26.124Z,15.70
2018-12-24T06:21:59.832Z,15.70
2018-12-24T06:22:33.718Z,15.70
2018-12-24T06:23:07.214Z,15.60
2018-12-24T06:23:40.601Z,15.60
2018-12-24T06:24:14.126Z,15.60
2018-12-24T06:24:47.748Z,15.60
2018-12-24T06:25:21.205Z,15.60
2018-12-24T06:25:55.792Z,15.70
2018-12-24T06:26:29.475Z,15.70
2018-12-24T06:27:03.024Z,15.70
2018-12-24T06:27:36.673Z,15.70
2018-12-24T06:28:10.274Z,15.70
2018-12-24T06:28:43.908Z,15.70
2018-12-24T06:29:17.790Z,15.70
2018-12-24T06:29:51.783Z,15.70
2018-12-24T06:30:25.402Z,15.70
2018-12-24T06:30:58.992Z,15.70
2018-12-24T06:31:32.519Z,15.70
2018-12-24T06:32:06.352Z,15.70
2018-12-24T06:32:39.711Z,15.70
2018-12-24T06:33:13.249Z,15.60
2018-12-24T06:33:46.991Z,15.60
2018-12-24T06:34:20.617Z,15.60
2018-12-24T06:34:54.200Z,15.70
2018-12-24T06:35:27.922Z,15.70
2018-12-24T06:36:01.589Z,15.70
2018-12-24T06:36:34.709Z,15.70
2018-12-24T06:37:08.213Z,15.70
2018-12-24T06:37:41.947Z,15.60
2018-12-24T06:38:15.398Z,15.60
2018-12-24T06:38:48.915Z,15.60
2018-12-24T06:39:22.692Z,15.60
2018-12-24T06:39:56.188Z,15.60
2018-12-24T06:40:29.549Z,15.60
2018-12-24T06:41:03.049Z,15.60
2018-12-24T06:41:36.648Z,15.60
2018-12-24T06:42:10.202Z,15.70
2018-12-24T06:42:43.888Z,15.70
2018-12-24T06:43:17.476Z,15.70
2018-12-24T06:43:51.197Z,15.70
2018-12-24T06:44:24.566Z,15.70
2018-12-24T06:44:58.167Z,15.70
2018-12-24T06:45:31.459Z,15.70
2018-12-24T06:46:05.301Z,15.70
2018-12-24T06:46:39.846Z,15.70
2018-12-24T06:47:13.505Z,15.60
2018-12-24T06:47:47.279Z,15.60
2018-12-24T06:48:20.855Z,15.60
2018-12-24T06:48:54.564Z,15.60
2018-12-24T06:49:28.358Z,15.60
2018-12-24T06:50:01.950Z,15.60
2018-12-24T06:50:35.549Z,15.60
2018-12-24T06:51:09.146Z,15.60
2018-12-24T06:51:42.549Z,15.60
2018-12-24T06:52:15.998Z,15.50
2018-12-24T06:52:49.795Z,15.50
2018-12-24T06:53:23.629Z,15.50
2018-12-24T06:53:57.135Z,15.60
2018-12-24T06:54:30.803Z,15.60
2018-12-24T06:55:04.376Z,15.60
2018-12-24T06:55:38.089Z,15.50
2018-12-24T06:56:11.706Z,15.50
2018-12-24T06:56:45.667Z,15.50
2018-12-24T06:57:19.145Z,15.50
2018-12-24T06:57:52.730Z,15.50
2018-12-24T06:58:26.449Z,15.50
2018-12-24T06:59:00.017Z,15.60
2018-12-24T06:59:33.410Z,15.50
2018-12-24T07:00:07.157Z,15.50
2018-12-24T07:00:42.337Z,15.50
2018-12-24T07:01:15.915Z,15.50
2018-12-24T07:01:49.135Z,15.50
2018-12-24T07:02:24.219Z,15.50
2018-12-24T07:03:00.306Z,15.40
2018-12-24T07:03:33.696Z,15.50
2018-12-24T07:04:10.297Z,15.50
2018-12-24T07:04:43.986Z,15.50
2018-12-24T07:05:17.450Z,15.40
2018-12-24T07:05:51.246Z,15.50
2018-12-24T07:06:24.945Z,15.40
2018-12-24T07:06:58.576Z,15.40
2018-12-24T07:07:32.617Z,15.40
2018-12-24T07:08:06.286Z,15.40
2018-12-24T07:08:39.885Z,15.40
2018-12-24T07:09:13.686Z,15.40
2018-12-24T07:09:47.605Z,15.40
2018-12-24T07:10:21.130Z,15.40
2018-12-24T07:10:54.522Z,15.40
2018-12-24T07:11:28.306Z,15.40
2018-12-24T07:12:02.178Z,15.40
2018-12-24T07:12:35.798Z,15.40
2018-12-24T07:13:09.338Z,15.40
2018-12-24T07:13:43.117Z,15.40
2018-12-24T07:14:19.412Z,15.40
2018-12-24T07:14:52.997Z,15.30
2018-12-24T07:15:26.496Z,15.30
2018-12-24T07:16:00.007Z,15.30
2018-12-24T07:16:33.996Z,15.40
2018-12-24T07:17:11.295Z,15.40
2018-12-24T07:17:44.987Z,15.40
2018-12-24T07:18:18.668Z,15.30
2018-12-24T07:18:52.387Z,15.30